sensor_id;sensor_type;location;lat;lon;timestamp;temperature;humidity
76426;DHT22;65258;42.680;23.266;2022-11-20T00:00:39;18.70;52.06
76426;DHT22;65258;42.680;23.266;2022-11-20T00:03:05;18.69;52.82
76426;DHT22;65258;42.680;23.266;2022-11-20T00:05:32;18.67;52.61
76426;DHT22;65258;42.680;23.266;2022-11-20T00:07:58;18.72;52.75
76426;DHT22;65258;42.680;23.266;2022-11-20T00:10:23;18.70;52.88
76426;DHT22;65258;42.680;23.266;2022-11-20T00:12:49;18.70;52.29
76426;DHT22;65258;42.680;23.266;2022-11-20T00:15:14;18.72;52.02
76426;DHT22;65258;42.680;23.266;2022-11-20T00:17:40;18.77;52.40
76426;DHT22;65258;42.680;23.266;2022-11-20T00:20:05;18.80;51.00
76426;DHT22;65258;42.680;23.266;2022-11-20T00:22:31;18.83;51.58
76426;DHT22;65258;42.680;23.266;2022-11-20T00:24:57;18.79;51.53
76426;DHT22;65258;42.680;23.266;2022-11-20T00:27:23;18.84;51.35
76426;DHT22;65258;42.680;23.266;2022-11-20T00:29:48;18.87;51.58
76426;DHT22;65258;42.680;23.266;2022-11-20T00:32:14;18.86;51.11
76426;DHT22;65258;42.680;23.266;2022-11-20T00:34:39;18.93;52.13
76426;DHT22;65258;42.680;23.266;2022-11-20T00:37:05;18.87;51.61
76426;DHT22;65258;42.680;23.266;2022-11-20T00:39:30;18.82;52.36
76426;DHT22;65258;42.680;23.266;2022-11-20T00:41:56;18.82;52.27
76426;DHT22;65258;42.680;23.266;2022-11-20T00:44:22;18.84;50.72
76426;DHT22;65258;42.680;23.266;2022-11-20T00:46:47;18.84;52.20
76426;DHT22;65258;42.680;23.266;2022-11-20T00:49:13;18.83;51.89
76426;DHT22;65258;42.680;23.266;2022-11-20T00:51:38;18.86;51.72
76426;DHT22;65258;42.680;23.266;2022-11-20T00:54:04;18.83;51.99
76426;DHT22;65258;42.680;23.266;2022-11-20T00:56:29;18.83;51.82
76426;DHT22;65258;42.680;23.266;2022-11-20T00:58:55;18.80;52.61
76426;DHT22;65258;42.680;23.266;2022-11-20T01:01:25;18.76;53.07
76426;DHT22;65258;42.680;23.266;2022-11-20T01:03:52;18.64;53.61
76426;DHT22;65258;42.680;23.266;2022-11-20T01:06:21;18.60;53.94
76426;DHT22;65258;42.680;23.266;2022-11-20T01:08:47;18.64;53.38
76426;DHT22;65258;42.680;23.266;2022-11-20T01:11:18;18.60;53.86
76426;DHT22;65258;42.680;23.266;2022-11-20T01:13:45;18.62;53.71
76426;DHT22;65258;42.680;23.266;2022-11-20T01:16:14;18.59;53.64
76426;DHT22;65258;42.680;23.266;2022-11-20T01:18:42;18.60;53.18
76426;DHT22;65258;42.680;23.266;2022-11-20T01:21:11;18.60;53.39
76426;DHT22;65258;42.680;23.266;2022-11-20T01:23:39;18.60;52.55
76426;DHT22;65258;42.680;23.266;2022-11-20T01:26:09;18.59;53.07
76426;DHT22;65258;42.680;23.266;2022-11-20T01:28:34;18.51;53.38
76426;DHT22;65258;42.680;23.266;2022-11-20T01:31:01;18.52;53.18
76426;DHT22;65258;42.680;23.266;2022-11-20T01:33:36;18.56;52.19
76426;DHT22;65258;42.680;23.266;2022-11-20T01:36:05;18.60;52.78
76426;DHT22;65258;42.680;23.266;2022-11-20T01:38:31;18.63;52.47
76426;DHT22;65258;42.680;23.266;2022-11-20T01:40:57;18.70;51.12
76426;DHT22;65258;42.680;23.266;2022-11-20T01:43:22;18.73;51.94
76426;DHT22;65258;42.680;23.266;2022-11-20T01:46:17;18.69;52.32
76426;DHT22;65258;42.680;23.266;2022-11-20T01:51:28;18.60;52.71
76426;DHT22;65258;42.680;23.266;2022-11-20T01:53:57;18.59;53.14
76426;DHT22;65258;42.680;23.266;2022-11-20T01:56:25;18.52;53.34
76426;DHT22;65258;42.680;23.266;2022-11-20T01:58:54;18.43;53.76
76426;DHT22;65258;42.680;23.266;2022-11-20T02:01:21;18.43;53.55
76426;DHT22;65258;42.680;23.266;2022-11-20T02:03:47;18.41;53.63
76426;DHT22;65258;42.680;23.266;2022-11-20T02:06:24;18.39;53.85
76426;DHT22;65258;42.680;23.266;2022-11-20T02:08:51;18.39;53.45
76426;DHT22;65258;42.680;23.266;2022-11-20T02:11:18;18.36;53.71
76426;DHT22;65258;42.680;23.266;2022-11-20T02:13:44;18.31;54.17
76426;DHT22;65258;42.680;23.266;2022-11-20T02:18:43;18.21;54.52
76426;DHT22;65258;42.680;23.266;2022-11-20T02:21:18;18.21;54.05
76426;DHT22;65258;42.680;23.266;2022-11-20T02:26:31;18.29;53.77
76426;DHT22;65258;42.680;23.266;2022-11-20T02:28:58;18.24;53.98
76426;DHT22;65258;42.680;23.266;2022-11-20T02:31:24;18.25;53.90
76426;DHT22;65258;42.680;23.266;2022-11-20T02:33:57;18.22;54.38
76426;DHT22;65258;42.680;23.266;2022-11-20T02:36:25;18.22;54.27
76426;DHT22;65258;42.680;23.266;2022-11-20T02:38:51;18.19;54.46
76426;DHT22;65258;42.680;23.266;2022-11-20T02:41:17;18.15;54.43
76426;DHT22;65258;42.680;23.266;2022-11-20T02:43:43;18.13;54.77
76426;DHT22;65258;42.680;23.266;2022-11-20T02:46:08;18.13;54.92
76426;DHT22;65258;42.680;23.266;2022-11-20T02:48:34;18.21;55.37
76426;DHT22;65258;42.680;23.266;2022-11-20T02:51:00;18.13;55.83
76426;DHT22;65258;42.680;23.266;2022-11-20T02:53:25;18.08;55.98
76426;DHT22;65258;42.680;23.266;2022-11-20T02:55:51;18.06;56.38
76426;DHT22;65258;42.680;23.266;2022-11-20T02:58:17;18.04;56.39
76426;DHT22;65258;42.680;23.266;2022-11-20T03:00:42;18.00;57.02
76426;DHT22;65258;42.680;23.266;2022-11-20T03:03:08;17.94;57.42
76426;DHT22;65258;42.680;23.266;2022-11-20T03:05:33;17.82;58.19
76426;DHT22;65258;42.680;23.266;2022-11-20T03:07:59;17.82;58.16
76426;DHT22;65258;42.680;23.266;2022-11-20T03:10:24;17.82;58.14
76426;DHT22;65258;42.680;23.266;2022-11-20T03:12:54;17.78;57.62
76426;DHT22;65258;42.680;23.266;2022-11-20T03:15:20;17.78;58.27
76426;DHT22;65258;42.680;23.266;2022-11-20T03:17:46;17.66;58.44
76426;DHT22;65258;42.680;23.266;2022-11-20T03:20:12;17.61;58.61
76426;DHT22;65258;42.680;23.266;2022-11-20T03:22:37;17.59;58.94
76426;DHT22;65258;42.680;23.266;2022-11-20T03:25:03;17.57;58.43
76426;DHT22;65258;42.680;23.266;2022-11-20T03:27:33;17.55;57.65
76426;DHT22;65258;42.680;23.266;2022-11-20T03:29:59;17.60;57.75
76426;DHT22;65258;42.680;23.266;2022-11-20T03:32:24;17.61;58.25
76426;DHT22;65258;42.680;23.266;2022-11-20T03:34:50;17.59;58.41
76426;DHT22;65258;42.680;23.266;2022-11-20T03:37:15;17.61;58.61
76426;DHT22;65258;42.680;23.266;2022-11-20T03:39:40;17.51;58.85
76426;DHT22;65258;42.680;23.266;2022-11-20T03:42:06;17.51;58.29
76426;DHT22;65258;42.680;23.266;2022-11-20T03:44:51;17.53;58.55
76426;DHT22;65258;42.680;23.266;2022-11-20T03:47:17;17.51;58.56
76426;DHT22;65258;42.680;23.266;2022-11-20T03:49:42;17.53;58.51
76426;DHT22;65258;42.680;23.266;2022-11-20T03:52:08;17.57;57.27
76426;DHT22;65258;42.680;23.266;2022-11-20T03:54:33;17.64;57.00
76426;DHT22;65258;42.680;23.266;2022-11-20T03:56:59;17.68;57.04
76426;DHT22;65258;42.680;23.266;2022-11-20T03:59:24;17.73;56.66
76426;DHT22;65258;42.680;23.266;2022-11-20T04:01:50;17.70;57.32
76426;DHT22;65258;42.680;23.266;2022-11-20T04:04:15;17.70;57.23
76426;DHT22;65258;42.680;23.266;2022-11-20T04:06:41;17.64;57.35
76426;DHT22;65258;42.680;23.266;2022-11-20T04:09:07;17.64;57.73
76426;DHT22;65258;42.680;23.266;2022-11-20T04:11:34;17.61;56.91
76426;DHT22;65258;42.680;23.266;2022-11-20T04:14:02;17.66;57.70
76426;DHT22;65258;42.680;23.266;2022-11-20T04:16:37;17.57;57.30
76426;DHT22;65258;42.680;23.266;2022-11-20T04:19:05;17.57;56.47
76426;DHT22;65258;42.680;23.266;2022-11-20T04:21:31;17.55;56.84
76426;DHT22;65258;42.680;23.266;2022-11-20T04:23:57;17.55;56.94
76426;DHT22;65258;42.680;23.266;2022-11-20T04:26:26;17.61;57.19
76426;DHT22;65258;42.680;23.266;2022-11-20T04:28:52;17.59;57.05
76426;DHT22;65258;42.680;23.266;2022-11-20T04:31:23;17.64;56.88
76426;DHT22;65258;42.680;23.266;2022-11-20T04:33:48;17.66;57.09
76426;DHT22;65258;42.680;23.266;2022-11-20T04:36:16;17.66;57.21
76426;DHT22;65258;42.680;23.266;2022-11-20T04:38:43;17.64;57.23
76426;DHT22;65258;42.680;23.266;2022-11-20T04:41:14;17.64;57.40
76426;DHT22;65258;42.680;23.266;2022-11-20T04:43:40;17.64;57.39
76426;DHT22;65258;42.680;23.266;2022-11-20T04:46:05;17.61;57.32
76426;DHT22;65258;42.680;23.266;2022-11-20T04:48:31;17.67;56.76
76426;DHT22;65258;42.680;23.266;2022-11-20T04:50:56;17.66;57.45
76426;DHT22;65258;42.680;23.266;2022-11-20T04:53:23;17.59;58.18
76426;DHT22;65258;42.680;23.266;2022-11-20T04:55:48;17.55;57.86
76426;DHT22;65258;42.680;23.266;2022-11-20T04:58:15;17.55;57.55
76426;DHT22;65258;42.680;23.266;2022-11-20T05:00:41;17.60;57.56
76426;DHT22;65258;42.680;23.266;2022-11-20T05:03:06;17.63;57.94
76426;DHT22;65258;42.680;23.266;2022-11-20T05:05:34;17.63;57.46
76426;DHT22;65258;42.680;23.266;2022-11-20T05:08:00;17.63;56.87
76426;DHT22;65258;42.680;23.266;2022-11-20T05:10:26;17.61;57.08
76426;DHT22;65258;42.680;23.266;2022-11-20T05:12:51;17.60;56.19
76426;DHT22;65258;42.680;23.266;2022-11-20T05:15:17;17.59;57.03
76426;DHT22;65258;42.680;23.266;2022-11-20T05:17:49;17.59;56.34
76426;DHT22;65258;42.680;23.266;2022-11-20T05:20:15;17.66;55.46
76426;DHT22;65258;42.680;23.266;2022-11-20T05:22:40;17.70;55.75
76426;DHT22;65258;42.680;23.266;2022-11-20T05:25:06;17.66;56.02
76426;DHT22;65258;42.680;23.266;2022-11-20T05:27:32;17.71;55.81
76426;DHT22;65258;42.680;23.266;2022-11-20T05:29:57;17.68;55.52
76426;DHT22;65258;42.680;23.266;2022-11-20T05:32:23;17.73;55.03
76426;DHT22;65258;42.680;23.266;2022-11-20T05:34:51;17.75;55.82
76426;DHT22;65258;42.680;23.266;2022-11-20T05:37:16;17.70;55.86
76426;DHT22;65258;42.680;23.266;2022-11-20T05:39:42;17.71;55.83
76426;DHT22;65258;42.680;23.266;2022-11-20T05:42:08;17.73;56.59
76426;DHT22;65258;42.680;23.266;2022-11-20T05:44:52;17.71;55.97
76426;DHT22;65258;42.680;23.266;2022-11-20T05:47:17;17.70;55.40
76426;DHT22;65258;42.680;23.266;2022-11-20T05:49:43;17.68;55.53
76426;DHT22;65258;42.680;23.266;2022-11-20T05:52:08;17.70;55.66
76426;DHT22;65258;42.680;23.266;2022-11-20T05:54:34;17.74;55.74
76426;DHT22;65258;42.680;23.266;2022-11-20T05:56:59;17.80;55.76
76426;DHT22;65258;42.680;23.266;2022-11-20T05:59:25;17.77;55.44
76426;DHT22;65258;42.680;23.266;2022-11-20T06:01:50;17.80;55.94
76426;DHT22;65258;42.680;23.266;2022-11-20T06:04:16;17.77;55.54
76426;DHT22;65258;42.680;23.266;2022-11-20T06:06:41;17.80;55.67
76426;DHT22;65258;42.680;23.266;2022-11-20T06:09:07;17.87;54.97
76426;DHT22;65258;42.680;23.266;2022-11-20T06:11:33;17.84;54.33
76426;DHT22;65258;42.680;23.266;2022-11-20T06:13:58;17.84;54.55
76426;DHT22;65258;42.680;23.266;2022-11-20T06:16:24;17.95;54.96
76426;DHT22;65258;42.680;23.266;2022-11-20T06:18:49;17.87;55.85
76426;DHT22;65258;42.680;23.266;2022-11-20T06:21:18;17.87;56.11
76426;DHT22;65258;42.680;23.266;2022-11-20T06:23:44;17.91;56.09
76426;DHT22;65258;42.680;23.266;2022-11-20T06:26:15;17.90;56.45
76426;DHT22;65258;42.680;23.266;2022-11-20T06:28:41;17.94;56.86
76426;DHT22;65258;42.680;23.266;2022-11-20T06:31:10;17.95;56.23
76426;DHT22;65258;42.680;23.266;2022-11-20T06:33:36;18.08;55.57
76426;DHT22;65258;42.680;23.266;2022-11-20T06:36:03;18.42;54.07
76426;DHT22;65258;42.680;23.266;2022-11-20T06:38:29;19.07;53.35
76426;DHT22;65258;42.680;23.266;2022-11-20T06:40:55;19.89;50.62
76426;DHT22;65258;42.680;23.266;2022-11-20T06:43:21;20.70;49.09
76426;DHT22;65258;42.680;23.266;2022-11-20T06:45:54;21.46;47.77
76426;DHT22;65258;42.680;23.266;2022-11-20T06:48:21;22.16;45.93
76426;DHT22;65258;42.680;23.266;2022-11-20T06:50:47;22.67;45.02
76426;DHT22;65258;42.680;23.266;2022-11-20T06:53:12;23.16;41.47
76426;DHT22;65258;42.680;23.266;2022-11-20T06:55:42;23.66;41.82
76426;DHT22;65258;42.680;23.266;2022-11-20T06:58:07;23.90;40.23
76426;DHT22;65258;42.680;23.266;2022-11-20T07:00:33;24.22;39.58
76426;DHT22;65258;42.680;23.266;2022-11-20T07:03:03;24.64;40.01
76426;DHT22;65258;42.680;23.266;2022-11-20T07:05:28;24.89;39.45
76426;DHT22;65258;42.680;23.266;2022-11-20T07:07:56;24.89;39.30
76426;DHT22;65258;42.680;23.266;2022-11-20T07:10:21;24.54;40.49
76426;DHT22;65258;42.680;23.266;2022-11-20T07:12:53;24.11;41.45
76426;DHT22;65258;42.680;23.266;2022-11-20T07:15:21;23.59;42.87
76426;DHT22;65258;42.680;23.266;2022-11-20T07:17:47;22.95;43.80
76426;DHT22;65258;42.680;23.266;2022-11-20T07:20:13;22.17;44.48
76426;DHT22;65258;42.680;23.266;2022-11-20T07:22:39;21.61;46.66
76426;DHT22;65258;42.680;23.266;2022-11-20T07:25:05;21.17;47.74
76426;DHT22;65258;42.680;23.266;2022-11-20T07:27:31;20.95;48.48
76426;DHT22;65258;42.680;23.266;2022-11-20T07:29:56;20.54;49.52
76426;DHT22;65258;42.680;23.266;2022-11-20T07:32:22;20.27;51.18
76426;DHT22;65258;42.680;23.266;2022-11-20T07:34:48;19.98;52.41
76426;DHT22;65258;42.680;23.266;2022-11-20T07:37:14;19.74;52.62
76426;DHT22;65258;42.680;23.266;2022-11-20T07:39:40;19.71;52.15
76426;DHT22;65258;42.680;23.266;2022-11-20T07:42:08;19.50;51.51
76426;DHT22;65258;42.680;23.266;2022-11-20T07:44:36;19.48;52.22
76426;DHT22;65258;42.680;23.266;2022-11-20T07:47:02;19.44;51.45
76426;DHT22;65258;42.680;23.266;2022-11-20T07:49:27;19.37;50.09
76426;DHT22;65258;42.680;23.266;2022-11-20T07:51:53;19.38;51.66
76426;DHT22;65258;42.680;23.266;2022-11-20T07:54:20;19.34;49.73
76426;DHT22;65258;42.680;23.266;2022-11-20T07:56:46;19.28;49.43
76426;DHT22;65258;42.680;23.266;2022-11-20T07:59:11;19.32;49.74
76426;DHT22;65258;42.680;23.266;2022-11-20T08:01:38;19.25;49.19
76426;DHT22;65258;42.680;23.266;2022-11-20T08:04:03;19.28;49.86
76426;DHT22;65258;42.680;23.266;2022-11-20T08:06:29;19.17;50.91
76426;DHT22;65258;42.680;23.266;2022-11-20T08:08:54;19.17;51.59
76426;DHT22;65258;42.680;23.266;2022-11-20T08:11:20;19.34;51.58
76426;DHT22;65258;42.680;23.266;2022-11-20T08:14:04;19.41;52.23
76426;DHT22;65258;42.680;23.266;2022-11-20T08:16:44;19.53;51.55
76426;DHT22;65258;42.680;23.266;2022-11-20T08:19:11;19.66;51.87
76426;DHT22;65258;42.680;23.266;2022-11-20T08:21:36;19.81;51.01
76426;DHT22;65258;42.680;23.266;2022-11-20T08:24:02;19.92;53.31
76426;DHT22;65258;42.680;23.266;2022-11-20T08:26:28;19.92;53.36
76426;DHT22;65258;42.680;23.266;2022-11-20T08:28:55;19.99;52.32
76426;DHT22;65258;42.680;23.266;2022-11-20T08:31:22;19.89;51.00
76426;DHT22;65258;42.680;23.266;2022-11-20T08:33:48;19.88;51.62
76426;DHT22;65258;42.680;23.266;2022-11-20T08:36:13;20.00;51.72
76426;DHT22;65258;42.680;23.266;2022-11-20T08:38:39;19.95;51.33
76426;DHT22;65258;42.680;23.266;2022-11-20T08:41:05;19.72;53.24
76426;DHT22;65258;42.680;23.266;2022-11-20T08:43:49;19.53;55.66
76426;DHT22;65258;42.680;23.266;2022-11-20T08:46:16;19.41;57.55
76426;DHT22;65258;42.680;23.266;2022-11-20T08:48:42;18.87;60.70
76426;DHT22;65258;42.680;23.266;2022-11-20T08:51:07;18.45;63.29
76426;DHT22;65258;42.680;23.266;2022-11-20T08:53:33;18.24;63.95
76426;DHT22;65258;42.680;23.266;2022-11-20T08:55:58;18.05;66.32
76426;DHT22;65258;42.680;23.266;2022-11-20T08:58:25;17.98;67.42
76426;DHT22;65258;42.680;23.266;2022-11-20T09:00:50;17.92;66.94
76426;DHT22;65258;42.680;23.266;2022-11-20T09:03:16;17.90;66.29
76426;DHT22;65258;42.680;23.266;2022-11-20T09:05:41;17.84;66.24
76426;DHT22;65258;42.680;23.266;2022-11-20T09:08:08;17.77;67.33
76426;DHT22;65258;42.680;23.266;2022-11-20T09:10:34;17.64;68.25
76426;DHT22;65258;42.680;23.266;2022-11-20T09:13:00;17.59;69.31
76426;DHT22;65258;42.680;23.266;2022-11-20T09:15:26;17.43;69.03
76426;DHT22;65258;42.680;23.266;2022-11-20T09:17:57;17.30;70.59
76426;DHT22;65258;42.680;23.266;2022-11-20T09:20:24;17.26;70.81
76426;DHT22;65258;42.680;23.266;2022-11-20T09:22:50;17.22;68.44
76426;DHT22;65258;42.680;23.266;2022-11-20T09:25:16;17.07;68.28
76426;DHT22;65258;42.680;23.266;2022-11-20T09:27:42;17.00;69.67
76426;DHT22;65258;42.680;23.266;2022-11-20T09:30:09;16.95;70.24
76426;DHT22;65258;42.680;23.266;2022-11-20T09:32:35;16.90;69.52
76426;DHT22;65258;42.680;23.266;2022-11-20T09:35:01;16.73;70.35
76426;DHT22;65258;42.680;23.266;2022-11-20T09:37:27;16.71;70.84
76426;DHT22;65258;42.680;23.266;2022-11-20T09:39:52;16.82;71.56
76426;DHT22;65258;42.680;23.266;2022-11-20T09:45:39;17.13;71.57
76426;DHT22;65258;42.680;23.266;2022-11-20T09:48:33;17.39;70.32
76426;DHT22;65258;42.680;23.266;2022-11-20T09:56:34;17.70;68.93
76426;DHT22;65258;42.680;23.266;2022-11-20T09:59:05;17.91;68.83
76426;DHT22;65258;42.680;23.266;2022-11-20T10:01:34;18.18;66.84
76426;DHT22;65258;42.680;23.266;2022-11-20T10:04:11;18.43;67.49
76426;DHT22;65258;42.680;23.266;2022-11-20T10:09:31;19.13;63.01
76426;DHT22;65258;42.680;23.266;2022-11-20T10:14:49;19.43;63.39
76426;DHT22;65258;42.680;23.266;2022-11-20T10:20:24;19.69;63.04
76426;DHT22;65258;42.680;23.266;2022-11-20T10:31:46;19.61;64.48
76426;DHT22;65258;42.680;23.266;2022-11-20T10:34:28;19.61;61.58
76426;DHT22;65258;42.680;23.266;2022-11-20T10:39:30;19.27;63.37
76426;DHT22;65258;42.680;23.266;2022-11-20T10:41:58;19.21;64.80
76426;DHT22;65258;42.680;23.266;2022-11-20T10:44:29;19.02;64.92
76426;DHT22;65258;42.680;23.266;2022-11-20T10:47:15;18.87;65.75
76426;DHT22;65258;42.680;23.266;2022-11-20T10:49:46;18.72;65.15
76426;DHT22;65258;42.680;23.266;2022-11-20T10:58:03;18.04;68.24
76426;DHT22;65258;42.680;23.266;2022-11-20T11:00:32;17.85;66.85
76426;DHT22;65258;42.680;23.266;2022-11-20T11:02:57;17.55;65.46
76426;DHT22;65258;42.680;23.266;2022-11-20T11:05:50;16.90;70.32
76426;DHT22;65258;42.680;23.266;2022-11-20T11:08:19;15.79;71.87
76426;DHT22;65258;42.680;23.266;2022-11-20T11:10:54;15.02;73.24
76426;DHT22;65258;42.680;23.266;2022-11-20T11:13:27;14.63;72.15
76426;DHT22;65258;42.680;23.266;2022-11-20T11:15:53;14.44;75.43
76426;DHT22;65258;42.680;23.266;2022-11-20T11:18:33;14.17;75.66
76426;DHT22;65258;42.680;23.266;2022-11-20T11:21:03;14.07;76.04
76426;DHT22;65258;42.680;23.266;2022-11-20T11:23:36;14.06;76.04
76426;DHT22;65258;42.680;23.266;2022-11-20T11:26:05;13.93;75.20
76426;DHT22;65258;42.680;23.266;2022-11-20T11:28:31;13.93;76.56
76426;DHT22;65258;42.680;23.266;2022-11-20T11:30:57;13.85;74.80
76426;DHT22;65258;42.680;23.266;2022-11-20T11:33:31;13.79;76.95
76426;DHT22;65258;42.680;23.266;2022-11-20T11:36:04;13.83;77.18
76426;DHT22;65258;42.680;23.266;2022-11-20T11:38:38;13.83;76.27
76426;DHT22;65258;42.680;23.266;2022-11-20T11:41:07;13.83;74.61
76426;DHT22;65258;42.680;23.266;2022-11-20T11:43:36;13.86;74.83
76426;DHT22;65258;42.680;23.266;2022-11-20T11:48:57;13.95;72.59
76426;DHT22;65258;42.680;23.266;2022-11-20T11:51:31;14.03;72.93
76426;DHT22;65258;42.680;23.266;2022-11-20T11:53:58;14.14;72.11
76426;DHT22;65258;42.680;23.266;2022-11-20T11:56:26;14.19;72.55
76426;DHT22;65258;42.680;23.266;2022-11-20T11:58:57;14.20;70.93
76426;DHT22;65258;42.680;23.266;2022-11-20T12:07:35;14.50;68.90
76426;DHT22;65258;42.680;23.266;2022-11-20T12:09:56;14.58;68.77
76426;DHT22;65258;42.680;23.266;2022-11-20T12:12:28;14.58;67.76
76426;DHT22;65258;42.680;23.266;2022-11-20T12:14:56;14.58;67.80
76426;DHT22;65258;42.680;23.266;2022-11-20T12:17:22;14.60;69.11
76426;DHT22;65258;42.680;23.266;2022-11-20T12:19:47;14.67;67.87
76426;DHT22;65258;42.680;23.266;2022-11-20T12:22:35;14.61;68.99
76426;DHT22;65258;42.680;23.266;2022-11-20T12:28:00;14.78;63.92
76426;DHT22;65258;42.680;23.266;2022-11-20T12:30:27;14.89;65.76
76426;DHT22;65258;42.680;23.266;2022-11-20T12:50:06;14.92;68.20
76426;DHT22;65258;42.680;23.266;2022-11-20T12:52:41;14.99;66.91
76426;DHT22;65258;42.680;23.266;2022-11-20T13:01:03;15.16;65.26
76426;DHT22;65258;42.680;23.266;2022-11-20T13:03:38;15.21;65.01
76426;DHT22;65258;42.680;23.266;2022-11-20T13:06:18;15.11;68.74
76426;DHT22;65258;42.680;23.266;2022-11-20T13:08:54;14.65;72.76
76426;DHT22;65258;42.680;23.266;2022-11-20T13:11:30;14.17;75.17
76426;DHT22;65258;42.680;23.266;2022-11-20T13:14:26;14.06;75.94
76426;DHT22;65258;42.680;23.266;2022-11-20T13:17:17;13.97;76.77
76426;DHT22;65258;42.680;23.266;2022-11-20T13:19:56;13.86;76.35
76426;DHT22;65258;42.680;23.266;2022-11-20T13:25:21;13.95;74.94
76426;DHT22;65258;42.680;23.266;2022-11-20T13:27:48;13.95;75.18
76426;DHT22;65258;42.680;23.266;2022-11-20T13:30:15;13.89;75.35
76426;DHT22;65258;42.680;23.266;2022-11-20T13:32:53;13.90;75.88
76426;DHT22;65258;42.680;23.266;2022-11-20T13:35:31;13.93;74.60
76426;DHT22;65258;42.680;23.266;2022-11-20T13:38:07;14.03;75.02
76426;DHT22;65258;42.680;23.266;2022-11-20T13:40:36;14.09;74.18
76426;DHT22;65258;42.680;23.266;2022-11-20T13:45:32;14.26;75.52
76426;DHT22;65258;42.680;23.266;2022-11-20T13:48:04;14.24;75.74
76426;DHT22;65258;42.680;23.266;2022-11-20T13:50:44;14.30;75.01
76426;DHT22;65258;42.680;23.266;2022-11-20T13:55:59;14.41;74.34
76426;DHT22;65258;42.680;23.266;2022-11-20T13:58:47;14.52;74.55
76426;DHT22;65258;42.680;23.266;2022-11-20T14:01:25;14.47;73.96
76426;DHT22;65258;42.680;23.266;2022-11-20T14:03:52;14.40;74.85
76426;DHT22;65258;42.680;23.266;2022-11-20T14:06:33;14.42;74.32
76426;DHT22;65258;42.680;23.266;2022-11-20T14:08:59;14.45;74.55
76426;DHT22;65258;42.680;23.266;2022-11-20T14:11:27;14.48;74.81
76426;DHT22;65258;42.680;23.266;2022-11-20T14:13:57;14.52;74.83
76426;DHT22;65258;42.680;23.266;2022-11-20T14:16:24;14.57;74.47
76426;DHT22;65258;42.680;23.266;2022-11-20T14:18:50;14.57;74.30
76426;DHT22;65258;42.680;23.266;2022-11-20T14:21:29;14.56;74.09
76426;DHT22;65258;42.680;23.266;2022-11-20T14:24:09;14.56;73.55
76426;DHT22;65258;42.680;23.266;2022-11-20T14:26:37;14.56;72.98
76426;DHT22;65258;42.680;23.266;2022-11-20T14:29:04;14.56;73.40
76426;DHT22;65258;42.680;23.266;2022-11-20T14:31:29;14.57;72.68
76426;DHT22;65258;42.680;23.266;2022-11-20T14:33:56;14.58;71.78
76426;DHT22;65258;42.680;23.266;2022-11-20T14:36:23;14.56;71.59
76426;DHT22;65258;42.680;23.266;2022-11-20T14:38:50;14.56;71.56
76426;DHT22;65258;42.680;23.266;2022-11-20T14:41:21;14.54;71.05
76426;DHT22;65258;42.680;23.266;2022-11-20T14:43:53;14.47;70.97
76426;DHT22;65258;42.680;23.266;2022-11-20T14:46:19;14.44;70.74
76426;DHT22;65258;42.680;23.266;2022-11-20T14:48:47;14.40;71.04
76426;DHT22;65258;42.680;23.266;2022-11-20T14:51:44;14.42;70.92
76426;DHT22;65258;42.680;23.266;2022-11-20T14:54:14;14.41;70.97
76426;DHT22;65258;42.680;23.266;2022-11-20T14:56:40;14.38;71.47
76426;DHT22;65258;42.680;23.266;2022-11-20T14:59:07;14.38;71.49
76426;DHT22;65258;42.680;23.266;2022-11-20T15:01:33;14.29;71.76
76426;DHT22;65258;42.680;23.266;2022-11-20T15:04:11;14.26;71.69
76426;DHT22;65258;42.680;23.266;2022-11-20T15:06:37;14.26;71.38
76426;DHT22;65258;42.680;23.266;2022-11-20T15:09:14;14.29;71.83
76426;DHT22;65258;42.680;23.266;2022-11-20T15:12:03;14.26;71.72
76426;DHT22;65258;42.680;23.266;2022-11-20T15:14:30;14.13;72.12
76426;DHT22;65258;42.680;23.266;2022-11-20T15:16:58;14.17;72.09
76426;DHT22;65258;42.680;23.266;2022-11-20T15:19:25;14.19;72.38
76426;DHT22;65258;42.680;23.266;2022-11-20T15:21:52;14.19;71.99
76426;DHT22;65258;42.680;23.266;2022-11-20T15:24:17;14.16;72.33
76426;DHT22;65258;42.680;23.266;2022-11-20T15:26:43;14.16;72.08
76426;DHT22;65258;42.680;23.266;2022-11-20T15:29:14;14.16;72.05
76426;DHT22;65258;42.680;23.266;2022-11-20T15:31:44;14.16;72.01
76426;DHT22;65258;42.680;23.266;2022-11-20T15:34:16;14.17;71.80
76426;DHT22;65258;42.680;23.266;2022-11-20T15:36:42;14.02;72.51
76426;DHT22;65258;42.680;23.266;2022-11-20T15:39:08;13.95;73.33
76426;DHT22;65258;42.680;23.266;2022-11-20T15:41:35;13.95;74.66
76426;DHT22;65258;42.680;23.266;2022-11-20T15:44:01;13.70;75.95
76426;DHT22;65258;42.680;23.266;2022-11-20T15:46:29;13.62;76.47
76426;DHT22;65258;42.680;23.266;2022-11-20T15:48:59;13.51;77.01
76426;DHT22;65258;42.680;23.266;2022-11-20T15:51:35;13.44;77.37
76426;DHT22;65258;42.680;23.266;2022-11-20T15:54:09;13.32;77.16
76426;DHT22;65258;42.680;23.266;2022-11-20T15:56:35;13.28;77.67
76426;DHT22;65258;42.680;23.266;2022-11-20T15:59:01;13.21;77.27
76426;DHT22;65258;42.680;23.266;2022-11-20T16:01:26;13.19;77.67
76426;DHT22;65258;42.680;23.266;2022-11-20T16:03:52;13.14;77.03
76426;DHT22;65258;42.680;23.266;2022-11-20T16:06:17;13.15;76.87
76426;DHT22;65258;42.680;23.266;2022-11-20T16:08:43;13.03;77.03
76426;DHT22;65258;42.680;23.266;2022-11-20T16:11:13;12.98;77.43
76426;DHT22;65258;42.680;23.266;2022-11-20T16:13:39;12.98;77.51
76426;DHT22;65258;42.680;23.266;2022-11-20T16:16:27;13.01;77.67
76426;DHT22;65258;42.680;23.266;2022-11-20T16:18:54;13.07;77.92
76426;DHT22;65258;42.680;23.266;2022-11-20T16:21:20;13.08;78.03
76426;DHT22;65258;42.680;23.266;2022-11-20T16:23:45;13.11;78.21
76426;DHT22;65258;42.680;23.266;2022-11-20T16:26:16;13.07;78.43
76426;DHT22;65258;42.680;23.266;2022-11-20T16:28:45;13.11;78.57
76426;DHT22;65258;42.680;23.266;2022-11-20T16:31:13;13.10;78.83
76426;DHT22;65258;42.680;23.266;2022-11-20T16:33:39;13.01;78.71
76426;DHT22;65258;42.680;23.266;2022-11-20T16:36:13;12.98;79.39
76426;DHT22;65258;42.680;23.266;2022-11-20T16:38:39;13.01;79.50
76426;DHT22;65258;42.680;23.266;2022-11-20T16:41:05;13.01;79.12
76426;DHT22;65258;42.680;23.266;2022-11-20T16:43:31;13.01;78.40
76426;DHT22;65258;42.680;23.266;2022-11-20T16:45:57;13.03;78.61
76426;DHT22;65258;42.680;23.266;2022-11-20T16:48:22;13.07;78.50